Home   Weather   USA   Baton Rouge   Past weeks
Flag for USA

Past Weather in Baton Rouge, Louisiana, USA — February 2020

Currently: 73 °F. Scattered clouds. (Weather station: Baton Rouge Metropolitan - Ryan Field, USA). See more current weather

February 2020 Weather in Baton Rouge — Graph

°F

High & Low Weather Summary for February 2020

 TemperatureHumidityPressure
High79 °F (Feb 11, 3:53 pm)100% (Feb 18, 6:59 am)30.59 "Hg (Feb 18, 6:59 am)
Low32 °F (Feb 22, 4:53 am)19% (Feb 29, 1:53 pm)29.55 "Hg (Feb 6, 2:00 am)
Average57 °F76%30.10 "Hg
* Reported Feb 1 12:18 am — Feb 29 11:53 pm, Baton Rouge. Weather by CustomWeather, © 2021

Note: Actual official high and low records may vary slightly from our data, if they occured in-between our weather recording intervals... More about our weather records

Baton Rouge Weather History for February 1, 2020

Scroll right to see more
 ConditionsComfort  
Time TempWeatherWind HumidityBarometerVisibility
12:18 am
Sat, Feb 1
47 °FPassing clouds.5 mph80%30.16 "Hg10 mi
12:53 am46 °FClear.5 mph83%30.15 "Hg10 mi
1:53 am46 °FPassing clouds.3 mph86%30.15 "Hg10 mi
2:53 am47 °FOvercast.6 mph86%30.14 "Hg10 mi
3:53 am47 °FPassing clouds.7 mph86%30.16 "Hg10 mi
4:53 am48 °FOvercast.7 mph86%30.15 "Hg10 mi
5:53 am48 °FOvercast.7 mph86%30.17 "Hg10 mi
6:53 am46 °FClear.3 mph89%30.18 "Hg10 mi
7:53 am47 °FSunny.5 mph90%30.19 "Hg10 mi
8:53 am51 °FScattered clouds.7 mph74%30.22 "Hg10 mi
9:53 am53 °FPassing clouds.12 mph61%30.24 "Hg10 mi
10:53 am56 °FPartly sunny.13 mph58%30.23 "Hg10 mi
11:53 am55 °FScattered clouds.15 mph53%30.21 "Hg10 mi
12:53 pm57 °FScattered clouds.15 mph49%30.17 "Hg10 mi
1:53 pm59 °FScattered clouds.14 mph44%30.15 "Hg10 mi
2:53 pm60 °FSunny.14 mph39%30.14 "Hg10 mi
3:53 pm60 °FSunny.9 mph35%30.14 "Hg10 mi
4:53 pm59 °FSunny.8 mph35%30.15 "Hg10 mi
6:53 pm52 °FClear.3 mph47%30.19 "Hg10 mi
8:53 pm44 °FClear.No wind76%30.22 "Hg10 mi
9:53 pm44 °FClear.No wind76%30.21 "Hg10 mi
10:53 pm42 °FClear.No wind76%30.22 "Hg10 mi
11:53 pm41 °FClear.No wind80%30.21 "Hg10 mi
Weather by CustomWeather, © 2021

See weather overview